sensor_id;sensor_type;location;lat;lon;timestamp;temperature;humidity
4279;DHT22;2153;47.744;10.580;2022-07-10T00:00:00;14.80;99.90
4279;DHT22;2153;47.744;10.580;2022-07-10T00:02:27;14.80;99.90
4279;DHT22;2153;47.744;10.580;2022-07-10T00:04:54;14.80;99.90
4279;DHT22;2153;47.744;10.580;2022-07-10T00:07:20;14.80;99.90
4279;DHT22;2153;47.744;10.580;2022-07-10T00:09:47;14.80;99.90
4279;DHT22;2153;47.744;10.580;2022-07-10T00:12:14;14.80;99.90
4279;DHT22;2153;47.744;10.580;2022-07-10T00:14:42;14.80;99.90
4279;DHT22;2153;47.744;10.580;2022-07-10T00:17:09;14.80;99.90
4279;DHT22;2153;47.744;10.580;2022-07-10T00:19:35;14.80;99.90
4279;DHT22;2153;47.744;10.580;2022-07-10T00:22:02;14.80;99.90
4279;DHT22;2153;47.744;10.580;2022-07-10T00:24:29;14.80;99.90
4279;DHT22;2153;47.744;10.580;2022-07-10T00:26:57;14.90;99.90
4279;DHT22;2153;47.744;10.580;2022-07-10T00:29:24;14.90;99.90
4279;DHT22;2153;47.744;10.580;2022-07-10T00:31:52;14.80;99.90
4279;DHT22;2153;47.744;10.580;2022-07-10T00:34:19;14.80;99.90
4279;DHT22;2153;47.744;10.580;2022-07-10T00:36:45;14.90;99.90
4279;DHT22;2153;47.744;10.580;2022-07-10T00:39:12;14.80;99.90
4279;DHT22;2153;47.744;10.580;2022-07-10T00:41:39;14.80;99.90
4279;DHT22;2153;47.744;10.580;2022-07-10T00:44:06;14.90;99.90
4279;DHT22;2153;47.744;10.580;2022-07-10T00:46:33;15.00;99.90
4279;DHT22;2153;47.744;10.580;2022-07-10T00:49:02;14.90;99.90
4279;DHT22;2153;47.744;10.580;2022-07-10T00:51:29;15.00;99.90
4279;DHT22;2153;47.744;10.580;2022-07-10T00:53:57;14.90;99.90
4279;DHT22;2153;47.744;10.580;2022-07-10T00:56:25;14.90;99.90
4279;DHT22;2153;47.744;10.580;2022-07-10T00:58:52;14.90;99.90
4279;DHT22;2153;47.744;10.580;2022-07-10T01:01:19;14.80;99.90
4279;DHT22;2153;47.744;10.580;2022-07-10T01:03:48;14.70;99.90
4279;DHT22;2153;47.744;10.580;2022-07-10T01:06:16;14.70;99.90
4279;DHT22;2153;47.744;10.580;2022-07-10T01:08:45;14.70;99.90
4279;DHT22;2153;47.744;10.580;2022-07-10T01:11:12;14.70;99.90
4279;DHT22;2153;47.744;10.580;2022-07-10T01:13:39;14.70;99.90
4279;DHT22;2153;47.744;10.580;2022-07-10T01:16:07;14.60;99.90
4279;DHT22;2153;47.744;10.580;2022-07-10T01:18:34;14.60;99.90
4279;DHT22;2153;47.744;10.580;2022-07-10T01:21:02;14.60;99.90
4279;DHT22;2153;47.744;10.580;2022-07-10T01:23:29;14.50;99.90
4279;DHT22;2153;47.744;10.580;2022-07-10T01:25:56;14.50;99.90
4279;DHT22;2153;47.744;10.580;2022-07-10T01:28:22;14.50;99.90
4279;DHT22;2153;47.744;10.580;2022-07-10T01:30:49;14.50;99.90
4279;DHT22;2153;47.744;10.580;2022-07-10T01:33:16;14.50;99.90
4279;DHT22;2153;47.744;10.580;2022-07-10T01:35:43;14.50;99.90
4279;DHT22;2153;47.744;10.580;2022-07-10T01:38:11;14.50;99.90
4279;DHT22;2153;47.744;10.580;2022-07-10T01:40:38;14.50;99.90
4279;DHT22;2153;47.744;10.580;2022-07-10T01:43:04;14.50;99.90
4279;DHT22;2153;47.744;10.580;2022-07-10T01:45:33;14.50;99.90
4279;DHT22;2153;47.744;10.580;2022-07-10T01:47:59;14.50;99.90
4279;DHT22;2153;47.744;10.580;2022-07-10T01:50:26;14.50;99.90
4279;DHT22;2153;47.744;10.580;2022-07-10T01:52:53;14.50;99.90
4279;DHT22;2153;47.744;10.580;2022-07-10T01:55:21;14.40;99.90
4279;DHT22;2153;47.744;10.580;2022-07-10T01:57:48;14.50;99.90
4279;DHT22;2153;47.744;10.580;2022-07-10T02:00:14;14.40;99.90
4279;DHT22;2153;47.744;10.580;2022-07-10T02:02:41;14.40;99.90
4279;DHT22;2153;47.744;10.580;2022-07-10T02:05:28;14.40;99.90
4279;DHT22;2153;47.744;10.580;2022-07-10T02:07:53;14.40;99.90
4279;DHT22;2153;47.744;10.580;2022-07-10T02:10:22;14.40;99.90
4279;DHT22;2153;47.744;10.580;2022-07-10T02:12:48;14.30;99.90
4279;DHT22;2153;47.744;10.580;2022-07-10T02:15:15;14.40;99.90
4279;DHT22;2153;47.744;10.580;2022-07-10T02:17:42;14.20;99.90
4279;DHT22;2153;47.744;10.580;2022-07-10T02:20:09;14.00;99.90
4279;DHT22;2153;47.744;10.580;2022-07-10T02:22:36;14.00;99.90
4279;DHT22;2153;47.744;10.580;2022-07-10T02:25:04;14.00;99.90
4279;DHT22;2153;47.744;10.580;2022-07-10T02:27:32;13.90;99.90
4279;DHT22;2153;47.744;10.580;2022-07-10T02:29:59;14.00;99.90
4279;DHT22;2153;47.744;10.580;2022-07-10T02:32:25;13.90;99.90
4279;DHT22;2153;47.744;10.580;2022-07-10T02:34:52;14.00;99.90
4279;DHT22;2153;47.744;10.580;2022-07-10T02:37:19;14.00;99.90
4279;DHT22;2153;47.744;10.580;2022-07-10T02:39:46;14.00;99.90
4279;DHT22;2153;47.744;10.580;2022-07-10T02:42:12;14.00;99.90
4279;DHT22;2153;47.744;10.580;2022-07-10T02:44:40;14.00;99.90
4279;DHT22;2153;47.744;10.580;2022-07-10T02:47:07;14.10;99.90
4279;DHT22;2153;47.744;10.580;2022-07-10T02:49:34;14.10;99.90
4279;DHT22;2153;47.744;10.580;2022-07-10T02:52:00;14.10;99.90
4279;DHT22;2153;47.744;10.580;2022-07-10T02:54:27;14.20;99.90
4279;DHT22;2153;47.744;10.580;2022-07-10T02:56:54;14.20;99.90
4279;DHT22;2153;47.744;10.580;2022-07-10T02:59:21;14.20;99.90
4279;DHT22;2153;47.744;10.580;2022-07-10T03:01:49;14.20;99.90
4279;DHT22;2153;47.744;10.580;2022-07-10T03:04:15;14.10;99.90
4279;DHT22;2153;47.744;10.580;2022-07-10T03:06:42;14.10;99.90
4279;DHT22;2153;47.744;10.580;2022-07-10T03:09:09;14.20;99.90
4279;DHT22;2153;47.744;10.580;2022-07-10T03:11:35;14.20;99.90
4279;DHT22;2153;47.744;10.580;2022-07-10T03:14:02;14.20;99.90
4279;DHT22;2153;47.744;10.580;2022-07-10T03:16:29;14.20;99.90
4279;DHT22;2153;47.744;10.580;2022-07-10T03:18:57;14.20;99.90
4279;DHT22;2153;47.744;10.580;2022-07-10T03:21:23;14.20;99.90
4279;DHT22;2153;47.744;10.580;2022-07-10T03:23:50;14.10;99.90
4279;DHT22;2153;47.744;10.580;2022-07-10T03:26:17;14.10;99.90
4279;DHT22;2153;47.744;10.580;2022-07-10T03:28:44;14.10;99.90
4279;DHT22;2153;47.744;10.580;2022-07-10T03:31:10;14.10;99.90
4279;DHT22;2153;47.744;10.580;2022-07-10T03:33:37;14.10;99.90
4279;DHT22;2153;47.744;10.580;2022-07-10T03:36:06;14.00;99.90
4279;DHT22;2153;47.744;10.580;2022-07-10T03:38:33;14.00;99.90
4279;DHT22;2153;47.744;10.580;2022-07-10T03:40:59;14.00;99.90
4279;DHT22;2153;47.744;10.580;2022-07-10T03:43:26;14.00;99.90
4279;DHT22;2153;47.744;10.580;2022-07-10T03:45:53;14.00;99.90
4279;DHT22;2153;47.744;10.580;2022-07-10T03:48:19;13.90;99.90
4279;DHT22;2153;47.744;10.580;2022-07-10T03:50:49;14.00;99.90
4279;DHT22;2153;47.744;10.580;2022-07-10T03:53:17;14.00;99.90
4279;DHT22;2153;47.744;10.580;2022-07-10T03:55:44;14.10;99.90
4279;DHT22;2153;47.744;10.580;2022-07-10T03:58:11;14.00;99.90
4279;DHT22;2153;47.744;10.580;2022-07-10T04:00:37;14.00;99.90
4279;DHT22;2153;47.744;10.580;2022-07-10T04:03:06;14.10;99.90
4279;DHT22;2153;47.744;10.580;2022-07-10T04:05:33;14.10;99.90
4279;DHT22;2153;47.744;10.580;2022-07-10T04:08:01;14.10;99.90
4279;DHT22;2153;47.744;10.580;2022-07-10T04:10:30;14.10;99.90
4279;DHT22;2153;47.744;10.580;2022-07-10T04:12:57;14.10;99.90
4279;DHT22;2153;47.744;10.580;2022-07-10T04:15:24;14.20;99.90
4279;DHT22;2153;47.744;10.580;2022-07-10T04:17:51;14.20;99.90
4279;DHT22;2153;47.744;10.580;2022-07-10T04:20:19;14.20;99.90
4279;DHT22;2153;47.744;10.580;2022-07-10T04:22:46;14.20;99.90
4279;DHT22;2153;47.744;10.580;2022-07-10T04:25:13;14.10;99.90
4279;DHT22;2153;47.744;10.580;2022-07-10T04:27:41;14.10;99.90
4279;DHT22;2153;47.744;10.580;2022-07-10T04:30:08;14.10;99.90
4279;DHT22;2153;47.744;10.580;2022-07-10T04:32:35;14.10;99.90
4279;DHT22;2153;47.744;10.580;2022-07-10T04:35:02;14.10;99.90
4279;DHT22;2153;47.744;10.580;2022-07-10T04:37:29;14.10;99.90
4279;DHT22;2153;47.744;10.580;2022-07-10T04:39:56;14.20;99.90
4279;DHT22;2153;47.744;10.580;2022-07-10T04:42:23;14.20;99.90
4279;DHT22;2153;47.744;10.580;2022-07-10T04:44:51;14.20;99.90
4279;DHT22;2153;47.744;10.580;2022-07-10T04:47:18;14.20;99.90
4279;DHT22;2153;47.744;10.580;2022-07-10T04:49:45;14.20;99.90
4279;DHT22;2153;47.744;10.580;2022-07-10T04:52:11;14.30;99.90
4279;DHT22;2153;47.744;10.580;2022-07-10T04:54:38;14.30;99.90
4279;DHT22;2153;47.744;10.580;2022-07-10T04:57:05;14.30;99.90
4279;DHT22;2153;47.744;10.580;2022-07-10T04:59:32;14.40;99.90
4279;DHT22;2153;47.744;10.580;2022-07-10T05:02:00;14.50;99.90
4279;DHT22;2153;47.744;10.580;2022-07-10T05:04:26;14.50;99.90
4279;DHT22;2153;47.744;10.580;2022-07-10T05:06:53;14.50;99.90
4279;DHT22;2153;47.744;10.580;2022-07-10T05:09:20;14.60;99.90
4279;DHT22;2153;47.744;10.580;2022-07-10T05:11:47;14.50;99.90
4279;DHT22;2153;47.744;10.580;2022-07-10T05:14:13;14.60;99.90
4279;DHT22;2153;47.744;10.580;2022-07-10T05:16:41;14.60;99.90
4279;DHT22;2153;47.744;10.580;2022-07-10T05:19:09;14.70;99.90
4279;DHT22;2153;47.744;10.580;2022-07-10T05:21:36;14.80;99.90
4279;DHT22;2153;47.744;10.580;2022-07-10T05:24:03;14.90;99.90
4279;DHT22;2153;47.744;10.580;2022-07-10T05:26:30;15.00;99.90
4279;DHT22;2153;47.744;10.580;2022-07-10T05:28:56;15.00;99.90
4279;DHT22;2153;47.744;10.580;2022-07-10T05:31:23;15.10;99.90
4279;DHT22;2153;47.744;10.580;2022-07-10T05:33:50;15.10;99.90
4279;DHT22;2153;47.744;10.580;2022-07-10T05:36:18;15.10;99.90
4279;DHT22;2153;47.744;10.580;2022-07-10T05:38:44;15.20;99.90
4279;DHT22;2153;47.744;10.580;2022-07-10T05:41:11;15.30;99.90
4279;DHT22;2153;47.744;10.580;2022-07-10T05:43:38;15.30;99.90
4279;DHT22;2153;47.744;10.580;2022-07-10T05:46:05;15.60;99.90
4279;DHT22;2153;47.744;10.580;2022-07-10T05:48:32;15.70;99.90
4279;DHT22;2153;47.744;10.580;2022-07-10T05:50:58;15.70;99.90
4279;DHT22;2153;47.744;10.580;2022-07-10T05:53:26;15.80;99.90
4279;DHT22;2153;47.744;10.580;2022-07-10T05:55:53;15.80;99.90
4279;DHT22;2153;47.744;10.580;2022-07-10T05:58:20;15.90;99.90
4279;DHT22;2153;47.744;10.580;2022-07-10T06:00:46;16.00;99.90
4279;DHT22;2153;47.744;10.580;2022-07-10T06:03:15;16.10;99.90
4279;DHT22;2153;47.744;10.580;2022-07-10T06:05:42;16.20;99.90
4279;DHT22;2153;47.744;10.580;2022-07-10T06:08:10;16.00;99.90
4279;DHT22;2153;47.744;10.580;2022-07-10T06:10:39;16.10;99.90
4279;DHT22;2153;47.744;10.580;2022-07-10T06:13:06;16.20;99.90
4279;DHT22;2153;47.744;10.580;2022-07-10T06:15:33;16.40;99.90
4279;DHT22;2153;47.744;10.580;2022-07-10T06:18:00;16.30;99.90
4279;DHT22;2153;47.744;10.580;2022-07-10T06:20:27;16.40;99.90
4279;DHT22;2153;47.744;10.580;2022-07-10T06:22:54;16.40;99.90
4279;DHT22;2153;47.744;10.580;2022-07-10T06:25:21;16.20;99.90
4279;DHT22;2153;47.744;10.580;2022-07-10T06:27:49;16.10;99.90
4279;DHT22;2153;47.744;10.580;2022-07-10T06:30:16;16.00;99.90
4279;DHT22;2153;47.744;10.580;2022-07-10T06:32:42;15.80;99.90
4279;DHT22;2153;47.744;10.580;2022-07-10T06:35:10;15.80;99.90
4279;DHT22;2153;47.744;10.580;2022-07-10T06:37:37;15.90;99.90
4279;DHT22;2153;47.744;10.580;2022-07-10T06:40:05;15.90;99.90
4279;DHT22;2153;47.744;10.580;2022-07-10T06:42:32;15.80;99.90
4279;DHT22;2153;47.744;10.580;2022-07-10T06:45:00;15.80;99.90
4279;DHT22;2153;47.744;10.580;2022-07-10T06:47:26;15.80;99.90
4279;DHT22;2153;47.744;10.580;2022-07-10T06:50:11;15.80;99.90
4279;DHT22;2153;47.744;10.580;2022-07-10T06:52:37;15.90;99.90
4279;DHT22;2153;47.744;10.580;2022-07-10T06:55:05;15.80;99.90
4279;DHT22;2153;47.744;10.580;2022-07-10T06:57:32;15.70;99.90
4279;DHT22;2153;47.744;10.580;2022-07-10T07:00:00;15.70;99.90
4279;DHT22;2153;47.744;10.580;2022-07-10T07:02:27;15.80;99.90
4279;DHT22;2153;47.744;10.580;2022-07-10T07:04:54;15.80;99.90
4279;DHT22;2153;47.744;10.580;2022-07-10T07:07:20;15.80;99.90
4279;DHT22;2153;47.744;10.580;2022-07-10T07:09:47;15.80;99.90
4279;DHT22;2153;47.744;10.580;2022-07-10T07:12:16;15.80;99.90
4279;DHT22;2153;47.744;10.580;2022-07-10T07:14:43;15.80;99.90
4279;DHT22;2153;47.744;10.580;2022-07-10T07:17:11;15.80;99.90
4279;DHT22;2153;47.744;10.580;2022-07-10T07:19:40;15.80;99.90
4279;DHT22;2153;47.744;10.580;2022-07-10T07:22:24;15.80;99.90
4279;DHT22;2153;47.744;10.580;2022-07-10T07:25:06;15.90;99.90
4279;DHT22;2153;47.744;10.580;2022-07-10T07:27:34;15.90;99.90
4279;DHT22;2153;47.744;10.580;2022-07-10T07:30:05;15.80;99.90
4279;DHT22;2153;47.744;10.580;2022-07-10T07:32:34;15.90;99.90
4279;DHT22;2153;47.744;10.580;2022-07-10T07:35:00;16.10;99.90
4279;DHT22;2153;47.744;10.580;2022-07-10T07:37:38;16.10;99.90
4279;DHT22;2153;47.744;10.580;2022-07-10T07:40:06;16.30;99.90
4279;DHT22;2153;47.744;10.580;2022-07-10T07:42:33;16.40;99.90
4279;DHT22;2153;47.744;10.580;2022-07-10T07:45:00;16.60;99.90
4279;DHT22;2153;47.744;10.580;2022-07-10T07:47:27;16.70;99.90
4279;DHT22;2153;47.744;10.580;2022-07-10T07:49:55;16.70;99.90
4279;DHT22;2153;47.744;10.580;2022-07-10T07:52:22;16.70;99.90
4279;DHT22;2153;47.744;10.580;2022-07-10T07:54:49;16.90;99.90
4279;DHT22;2153;47.744;10.580;2022-07-10T07:57:16;16.80;99.90
4279;DHT22;2153;47.744;10.580;2022-07-10T07:59:43;16.90;99.90
4279;DHT22;2153;47.744;10.580;2022-07-10T08:02:09;17.20;99.90
4279;DHT22;2153;47.744;10.580;2022-07-10T08:04:36;17.30;99.90
4279;DHT22;2153;47.744;10.580;2022-07-10T08:07:04;17.50;99.90
4279;DHT22;2153;47.744;10.580;2022-07-10T08:09:31;17.70;99.90
4279;DHT22;2153;47.744;10.580;2022-07-10T08:11:57;18.00;99.90
4279;DHT22;2153;47.744;10.580;2022-07-10T08:14:24;18.20;99.90
4279;DHT22;2153;47.744;10.580;2022-07-10T08:16:51;18.30;99.90
4279;DHT22;2153;47.744;10.580;2022-07-10T08:19:18;18.30;99.90
4279;DHT22;2153;47.744;10.580;2022-07-10T08:21:44;18.20;99.90
4279;DHT22;2153;47.744;10.580;2022-07-10T08:24:12;18.00;99.90
4279;DHT22;2153;47.744;10.580;2022-07-10T08:26:40;17.80;99.90
4279;DHT22;2153;47.744;10.580;2022-07-10T08:29:07;17.70;99.90
4279;DHT22;2153;47.744;10.580;2022-07-10T08:31:33;17.80;99.90
4279;DHT22;2153;47.744;10.580;2022-07-10T08:34:00;18.00;99.90
4279;DHT22;2153;47.744;10.580;2022-07-10T08:36:28;18.20;99.90
4279;DHT22;2153;47.744;10.580;2022-07-10T08:38:55;18.20;99.90
4279;DHT22;2153;47.744;10.580;2022-07-10T08:41:25;18.40;99.90
4279;DHT22;2153;47.744;10.580;2022-07-10T08:43:52;18.50;99.90
4279;DHT22;2153;47.744;10.580;2022-07-10T08:46:19;18.60;99.90
4279;DHT22;2153;47.744;10.580;2022-07-10T08:48:47;18.60;99.90
4279;DHT22;2153;47.744;10.580;2022-07-10T08:51:21;18.60;99.90
4279;DHT22;2153;47.744;10.580;2022-07-10T08:53:51;18.60;99.90
4279;DHT22;2153;47.744;10.580;2022-07-10T08:56:18;18.60;99.90
4279;DHT22;2153;47.744;10.580;2022-07-10T08:58:46;18.30;99.90
4279;DHT22;2153;47.744;10.580;2022-07-10T09:01:14;18.20;99.90
4279;DHT22;2153;47.744;10.580;2022-07-10T09:03:41;18.10;99.90
4279;DHT22;2153;47.744;10.580;2022-07-10T09:06:07;18.00;99.90
4279;DHT22;2153;47.744;10.580;2022-07-10T09:08:34;18.00;99.90
4279;DHT22;2153;47.744;10.580;2022-07-10T09:11:13;17.90;99.90
4279;DHT22;2153;47.744;10.580;2022-07-10T09:13:50;17.90;99.90
4279;DHT22;2153;47.744;10.580;2022-07-10T09:16:22;17.90;99.90
4279;DHT22;2153;47.744;10.580;2022-07-10T09:18:49;17.80;99.90
4279;DHT22;2153;47.744;10.580;2022-07-10T09:21:16;17.60;99.90
4279;DHT22;2153;47.744;10.580;2022-07-10T09:23:43;17.60;99.90
4279;DHT22;2153;47.744;10.580;2022-07-10T09:26:09;17.50;99.90
4279;DHT22;2153;47.744;10.580;2022-07-10T09:28:36;17.40;99.90
4279;DHT22;2153;47.744;10.580;2022-07-10T09:31:04;17.40;99.90
4279;DHT22;2153;47.744;10.580;2022-07-10T09:33:32;17.10;99.90
4279;DHT22;2153;47.744;10.580;2022-07-10T09:36:04;17.00;99.90
4279;DHT22;2153;47.744;10.580;2022-07-10T09:38:48;17.00;99.90
4279;DHT22;2153;47.744;10.580;2022-07-10T09:41:17;17.00;99.90
4279;DHT22;2153;47.744;10.580;2022-07-10T09:43:45;17.00;99.90
4279;DHT22;2153;47.744;10.580;2022-07-10T09:46:13;17.00;99.90
4279;DHT22;2153;47.744;10.580;2022-07-10T09:48:40;17.00;99.90
4279;DHT22;2153;47.744;10.580;2022-07-10T09:51:08;17.10;99.90
4279;DHT22;2153;47.744;10.580;2022-07-10T09:53:38;17.30;99.90
4279;DHT22;2153;47.744;10.580;2022-07-10T09:56:07;17.40;99.90
4279;DHT22;2153;47.744;10.580;2022-07-10T09:58:35;17.70;99.90
4279;DHT22;2153;47.744;10.580;2022-07-10T10:01:03;17.80;99.90
4279;DHT22;2153;47.744;10.580;2022-07-10T10:03:34;18.10;99.90
4279;DHT22;2153;47.744;10.580;2022-07-10T10:06:10;18.40;99.90
4279;DHT22;2153;47.744;10.580;2022-07-10T10:08:44;18.90;99.90
4279;DHT22;2153;47.744;10.580;2022-07-10T10:11:16;19.30;99.90
4279;DHT22;2153;47.744;10.580;2022-07-10T10:13:46;19.70;99.90
4279;DHT22;2153;47.744;10.580;2022-07-10T10:16:13;20.10;99.90
4279;DHT22;2153;47.744;10.580;2022-07-10T10:18:42;20.60;99.90
4279;DHT22;2153;47.744;10.580;2022-07-10T10:21:25;21.30;99.90
4279;DHT22;2153;47.744;10.580;2022-07-10T10:23:52;22.20;99.90
4279;DHT22;2153;47.744;10.580;2022-07-10T10:26:21;22.70;99.90
4279;DHT22;2153;47.744;10.580;2022-07-10T10:28:47;23.00;99.90
4279;DHT22;2153;47.744;10.580;2022-07-10T10:31:14;22.80;99.90
4279;DHT22;2153;47.744;10.580;2022-07-10T10:33:46;23.00;99.90
4279;DHT22;2153;47.744;10.580;2022-07-10T10:36:15;23.40;99.90
4279;DHT22;2153;47.744;10.580;2022-07-10T10:39:04;23.70;99.90
4279;DHT22;2153;47.744;10.580;2022-07-10T10:41:40;23.90;99.90
4279;DHT22;2153;47.744;10.580;2022-07-10T10:44:21;23.90;99.90
4279;DHT22;2153;47.744;10.580;2022-07-10T10:46:59;24.40;99.90
4279;DHT22;2153;47.744;10.580;2022-07-10T10:49:52;24.10;99.90
4279;DHT22;2153;47.744;10.580;2022-07-10T10:52:21;24.00;99.90
4279;DHT22;2153;47.744;10.580;2022-07-10T10:55:07;23.60;99.90
4279;DHT22;2153;47.744;10.580;2022-07-10T10:57:36;23.30;99.90
4279;DHT22;2153;47.744;10.580;2022-07-10T11:00:06;23.10;99.90
4279;DHT22;2153;47.744;10.580;2022-07-10T11:02:35;23.40;99.90
4279;DHT22;2153;47.744;10.580;2022-07-10T11:05:41;23.30;99.90
4279;DHT22;2153;47.744;10.580;2022-07-10T11:08:09;23.20;99.90
4279;DHT22;2153;47.744;10.580;2022-07-10T11:10:37;22.60;99.90
4279;DHT22;2153;47.744;10.580;2022-07-10T11:13:05;22.20;99.90
4279;DHT22;2153;47.744;10.580;2022-07-10T11:15:34;21.70;99.90
4279;DHT22;2153;47.744;10.580;2022-07-10T11:18:06;21.30;99.90
4279;DHT22;2153;47.744;10.580;2022-07-10T11:20:35;20.90;99.90
4279;DHT22;2153;47.744;10.580;2022-07-10T11:23:17;20.80;99.90
4279;DHT22;2153;47.744;10.580;2022-07-10T11:25:51;21.00;99.90
4279;DHT22;2153;47.744;10.580;2022-07-10T11:28:32;21.30;99.90
4279;DHT22;2153;47.744;10.580;2022-07-10T11:31:04;21.20;99.90
4279;DHT22;2153;47.744;10.580;2022-07-10T11:33:39;21.50;99.90
4279;DHT22;2153;47.744;10.580;2022-07-10T11:36:10;21.90;99.90
4279;DHT22;2153;47.744;10.580;2022-07-10T11:38:40;21.60;99.90
4279;DHT22;2153;47.744;10.580;2022-07-10T11:41:17;21.60;99.90
4279;DHT22;2153;47.744;10.580;2022-07-10T11:43:52;22.20;99.90
4279;DHT22;2153;47.744;10.580;2022-07-10T11:46:20;22.80;99.90
4279;DHT22;2153;47.744;10.580;2022-07-10T11:48:47;23.10;99.90
4279;DHT22;2153;47.744;10.580;2022-07-10T11:51:26;22.90;99.90
4279;DHT22;2153;47.744;10.580;2022-07-10T11:53:55;22.80;99.90
4279;DHT22;2153;47.744;10.580;2022-07-10T11:56:22;22.80;99.90
4279;DHT22;2153;47.744;10.580;2022-07-10T11:59:00;23.40;99.90
4279;DHT22;2153;47.744;10.580;2022-07-10T12:01:28;23.00;99.90
4279;DHT22;2153;47.744;10.580;2022-07-10T12:03:59;22.40;99.90
4279;DHT22;2153;47.744;10.580;2022-07-10T12:06:27;22.00;99.90
4279;DHT22;2153;47.744;10.580;2022-07-10T12:08:56;21.50;99.90
4279;DHT22;2153;47.744;10.580;2022-07-10T12:11:23;21.60;99.90
4279;DHT22;2153;47.744;10.580;2022-07-10T12:13:50;21.70;99.90
4279;DHT22;2153;47.744;10.580;2022-07-10T12:16:19;21.80;99.90
4279;DHT22;2153;47.744;10.580;2022-07-10T12:18:47;22.60;99.90
4279;DHT22;2153;47.744;10.580;2022-07-10T12:21:15;22.80;99.90
4279;DHT22;2153;47.744;10.580;2022-07-10T12:23:44;22.20;99.90
4279;DHT22;2153;47.744;10.580;2022-07-10T12:26:13;21.70;99.90
4279;DHT22;2153;47.744;10.580;2022-07-10T12:28:51;21.30;99.90
4279;DHT22;2153;47.744;10.580;2022-07-10T12:31:25;21.30;99.90
4279;DHT22;2153;47.744;10.580;2022-07-10T12:33:55;22.40;99.90
4279;DHT22;2153;47.744;10.580;2022-07-10T12:36:24;22.90;99.90
4279;DHT22;2153;47.744;10.580;2022-07-10T12:38:57;22.90;99.90
4279;DHT22;2153;47.744;10.580;2022-07-10T12:41:25;23.10;99.90
4279;DHT22;2153;47.744;10.580;2022-07-10T12:43:53;24.00;99.90
4279;DHT22;2153;47.744;10.580;2022-07-10T12:46:21;24.20;99.90
4279;DHT22;2153;47.744;10.580;2022-07-10T12:49:02;23.80;99.90
4279;DHT22;2153;47.744;10.580;2022-07-10T12:51:30;23.20;99.90
4279;DHT22;2153;47.744;10.580;2022-07-10T12:53:57;23.10;99.90
4279;DHT22;2153;47.744;10.580;2022-07-10T12:56:30;23.70;99.90
4279;DHT22;2153;47.744;10.580;2022-07-10T12:58:57;24.20;99.90
4279;DHT22;2153;47.744;10.580;2022-07-10T13:01:26;24.50;99.90
4279;DHT22;2153;47.744;10.580;2022-07-10T13:04:00;24.40;99.90
4279;DHT22;2153;47.744;10.580;2022-07-10T13:06:28;24.30;99.90
4279;DHT22;2153;47.744;10.580;2022-07-10T13:08:55;24.00;99.90
4279;DHT22;2153;47.744;10.580;2022-07-10T13:11:22;23.40;99.90
4279;DHT22;2153;47.744;10.580;2022-07-10T13:13:51;23.30;99.90
4279;DHT22;2153;47.744;10.580;2022-07-10T13:16:17;24.00;99.90
4279;DHT22;2153;47.744;10.580;2022-07-10T13:18:44;24.50;99.90
4279;DHT22;2153;47.744;10.580;2022-07-10T13:21:11;24.70;99.90
4279;DHT22;2153;47.744;10.580;2022-07-10T13:23:39;24.50;99.90
4279;DHT22;2153;47.744;10.580;2022-07-10T13:26:08;24.10;99.90
4279;DHT22;2153;47.744;10.580;2022-07-10T13:28:35;23.50;99.90
4279;DHT22;2153;47.744;10.580;2022-07-10T13:31:03;23.20;99.90
4279;DHT22;2153;47.744;10.580;2022-07-10T13:33:29;23.60;99.90
4279;DHT22;2153;47.744;10.580;2022-07-10T13:35:59;23.60;99.90
4279;DHT22;2153;47.744;10.580;2022-07-10T13:38:26;23.20;99.90
4279;DHT22;2153;47.744;10.580;2022-07-10T13:40:53;23.10;99.90
4279;DHT22;2153;47.744;10.580;2022-07-10T13:43:20;23.10;99.90
4279;DHT22;2153;47.744;10.580;2022-07-10T13:45:46;22.90;99.90
4279;DHT22;2153;47.744;10.580;2022-07-10T13:48:15;22.50;99.90
4279;DHT22;2153;47.744;10.580;2022-07-10T13:50:43;22.30;99.90
4279;DHT22;2153;47.744;10.580;2022-07-10T13:53:12;22.70;99.90
4279;DHT22;2153;47.744;10.580;2022-07-10T13:55:39;22.90;99.90
4279;DHT22;2153;47.744;10.580;2022-07-10T13:58:06;23.30;99.90
4279;DHT22;2153;47.744;10.580;2022-07-10T14:00:34;23.20;99.90
4279;DHT22;2153;47.744;10.580;2022-07-10T14:03:01;23.10;99.90
4279;DHT22;2153;47.744;10.580;2022-07-10T14:05:29;23.10;99.90
4279;DHT22;2153;47.744;10.580;2022-07-10T14:07:58;23.20;99.90
4279;DHT22;2153;47.744;10.580;2022-07-10T14:10:25;22.80;99.90
4279;DHT22;2153;47.744;10.580;2022-07-10T14:12:53;22.40;99.90
4279;DHT22;2153;47.744;10.580;2022-07-10T14:15:20;21.90;99.90
4279;DHT22;2153;47.744;10.580;2022-07-10T14:17:47;21.60;99.90
4279;DHT22;2153;47.744;10.580;2022-07-10T14:20:14;21.40;99.90
4279;DHT22;2153;47.744;10.580;2022-07-10T14:22:42;21.60;99.90
4279;DHT22;2153;47.744;10.580;2022-07-10T14:25:11;22.10;99.90
4279;DHT22;2153;47.744;10.580;2022-07-10T14:27:39;22.80;99.90
4279;DHT22;2153;47.744;10.580;2022-07-10T14:30:07;23.60;99.90
4279;DHT22;2153;47.744;10.580;2022-07-10T14:32:33;24.10;99.90
4279;DHT22;2153;47.744;10.580;2022-07-10T14:35:00;24.20;99.90
4279;DHT22;2153;47.744;10.580;2022-07-10T14:37:27;23.60;99.90
4279;DHT22;2153;47.744;10.580;2022-07-10T14:39:55;22.80;99.90
4279;DHT22;2153;47.744;10.580;2022-07-10T14:42:22;22.50;99.90
4279;DHT22;2153;47.744;10.580;2022-07-10T14:44:49;22.70;99.90
4279;DHT22;2153;47.744;10.580;2022-07-10T14:47:15;23.10;99.90
4279;DHT22;2153;47.744;10.580;2022-07-10T14:49:42;23.80;99.90
4279;DHT22;2153;47.744;10.580;2022-07-10T14:52:09;23.40;99.90
4279;DHT22;2153;47.744;10.580;2022-07-10T14:54:35;22.90;99.90
4279;DHT22;2153;47.744;10.580;2022-07-10T14:57:04;22.70;99.90
4279;DHT22;2153;47.744;10.580;2022-07-10T14:59:31;23.00;99.90
4279;DHT22;2153;47.744;10.580;2022-07-10T15:01:58;22.70;99.90
4279;DHT22;2153;47.744;10.580;2022-07-10T15:04:24;22.60;99.90
4279;DHT22;2153;47.744;10.580;2022-07-10T15:06:51;22.70;99.90
4279;DHT22;2153;47.744;10.580;2022-07-10T15:09:18;22.70;99.90
4279;DHT22;2153;47.744;10.580;2022-07-10T15:11:45;22.40;99.90
4279;DHT22;2153;47.744;10.580;2022-07-10T15:14:13;22.10;99.90
4279;DHT22;2153;47.744;10.580;2022-07-10T15:16:40;21.80;99.90
4279;DHT22;2153;47.744;10.580;2022-07-10T15:19:06;21.50;99.90
4279;DHT22;2153;47.744;10.580;2022-07-10T15:21:35;21.40;99.90
4279;DHT22;2153;47.744;10.580;2022-07-10T15:24:03;21.30;99.90
4279;DHT22;2153;47.744;10.580;2022-07-10T15:26:30;21.50;99.90
4279;DHT22;2153;47.744;10.580;2022-07-10T15:28:56;21.50;99.90
4279;DHT22;2153;47.744;10.580;2022-07-10T15:31:25;21.50;99.90
4279;DHT22;2153;47.744;10.580;2022-07-10T15:33:52;21.90;99.90
4279;DHT22;2153;47.744;10.580;2022-07-10T15:36:19;22.20;99.90
4279;DHT22;2153;47.744;10.580;2022-07-10T15:38:47;22.60;99.90
4279;DHT22;2153;47.744;10.580;2022-07-10T15:41:13;22.50;99.90
4279;DHT22;2153;47.744;10.580;2022-07-10T15:43:40;22.20;99.90
4279;DHT22;2153;47.744;10.580;2022-07-10T15:46:08;22.20;99.90
4279;DHT22;2153;47.744;10.580;2022-07-10T15:48:36;22.50;99.90
4279;DHT22;2153;47.744;10.580;2022-07-10T15:51:03;22.70;99.90